createdAt,value
2018-05-03T00:00:38.207Z,71.00
2018-05-03T00:03:13.702Z,71.20
2018-05-03T00:05:48.632Z,71.30
2018-05-03T00:08:23.905Z,71.90
2018-05-03T00:11:00.097Z,72.00
2018-05-03T00:13:36.087Z,71.40
2018-05-03T00:16:12.592Z,72.00
2018-05-03T00:18:48.276Z,72.70
2018-05-03T00:21:25.194Z,72.70
2018-05-03T00:24:00.445Z,73.50
2018-05-03T00:26:35.413Z,73.60
2018-05-03T00:29:10.880Z,73.90
2018-05-03T00:31:47.428Z,74.30
2018-05-03T00:34:23.054Z,74.80
2018-05-03T00:36:58.962Z,74.60
2018-05-03T00:39:35.038Z,74.90
2018-05-03T00:42:11.511Z,75.20
2018-05-03T00:44:46.954Z,75.70
2018-05-03T00:47:23.816Z,77.20
2018-05-03T00:50:00.707Z,76.40
2018-05-03T00:52:38.268Z,76.40
2018-05-03T00:55:13.392Z,76.60
2018-05-03T00:57:49.481Z,76.80
2018-05-03T01:00:26.368Z,76.80
2018-05-03T01:03:01.424Z,76.60
2018-05-03T01:05:39.211Z,76.90
2018-05-03T01:08:16.092Z,76.90
2018-05-03T01:10:51.949Z,76.40
2018-05-03T01:13:26.836Z,76.30
2018-05-03T01:16:02.708Z,77.60
2018-05-03T01:18:39.264Z,77.60
2018-05-03T01:21:14.505Z,77.20
2018-05-03T01:23:50.811Z,79.60
2018-05-03T01:26:27.320Z,81.20
2018-05-03T01:29:03.552Z,82.50
2018-05-03T01:31:39.994Z,81.80
2018-05-03T01:34:15.436Z,82.20
2018-05-03T01:36:51.533Z,81.70
2018-05-03T01:39:27.761Z,83.20
2018-05-03T01:42:02.977Z,84.40
2018-05-03T01:44:39.424Z,82.60
2018-05-03T01:47:14.790Z,83.30
2018-05-03T01:49:50.042Z,82.90
2018-05-03T01:52:25.370Z,83.10
2018-05-03T01:55:02.011Z,85.10
2018-05-03T01:57:38.720Z,84.30
2018-05-03T02:00:14.845Z,83.50
2018-05-03T02:02:50.389Z,84.00
2018-05-03T02:05:25.633Z,84.30
2018-05-03T02:08:03.424Z,87.40
2018-05-03T02:10:39.263Z,87.30
2018-05-03T02:13:14.748Z,86.50
2018-05-03T02:15:50.900Z,86.30
2018-05-03T02:18:27.468Z,88.00
2018-05-03T02:21:03.714Z,87.20
2018-05-03T02:23:40.128Z,86.50
2018-05-03T02:26:15.310Z,86.10
2018-05-03T02:28:51.425Z,88.10
2018-05-03T02:31:26.837Z,88.10
2018-05-03T02:34:01.975Z,87.90
2018-05-03T02:36:37.950Z,87.90
2018-05-03T02:39:13.480Z,87.50
2018-05-03T02:41:48.928Z,87.60
2018-05-03T02:44:25.593Z,87.50
2018-05-03T02:47:00.957Z,88.20
2018-05-03T02:49:37.239Z,88.00
2018-05-03T02:52:12.341Z,88.10
2018-05-03T02:54:48.537Z,88.20
2018-05-03T02:57:34.596Z,88.70
2018-05-03T03:00:26.498Z,88.30
2018-05-03T03:03:18.794Z,88.60
2018-05-03T03:06:08.702Z,87.90
2018-05-03T03:12:38.820Z,86.50
2018-05-03T03:15:31.544Z,87.80
2018-05-03T03:18:18.201Z,87.80
2018-05-03T03:21:10.485Z,87.80
2018-05-03T03:24:02.168Z,87.50
2018-05-03T03:27:06.544Z,86.70
2018-05-03T03:29:54.164Z,86.60
2018-05-03T03:32:40.859Z,86.40
2018-05-03T03:38:42.365Z,86.70
2018-05-03T03:41:30.266Z,87.30
2018-05-03T03:44:16.673Z,87.50
2018-05-03T03:46:51.702Z,87.70
2018-05-03T03:49:29.040Z,87.70
2018-05-03T03:52:04.117Z,87.70
2018-05-03T03:54:39.118Z,87.00
2018-05-03T03:57:16.214Z,85.90
2018-05-03T03:59:51.476Z,85.80
2018-05-03T04:02:27.037Z,85.80
2018-05-03T04:05:02.121Z,86.40
2018-05-03T04:07:37.308Z,86.20
2018-05-03T04:10:13.057Z,85.80
2018-05-03T04:12:48.534Z,86.20
2018-05-03T04:15:23.608Z,87.10
2018-05-03T04:18:09.841Z,86.70
2018-05-03T04:21:00.977Z,86.90
2018-05-03T04:23:47.052Z,87.80
2018-05-03T04:26:23.158Z,86.70
2018-05-03T04:28:58.647Z,86.90
2018-05-03T04:31:33.920Z,85.50
2018-05-03T04:34:09.249Z,85.60
2018-05-03T04:36:45.095Z,84.70
2018-05-03T04:39:20.579Z,85.20
2018-05-03T04:41:57.384Z,85.70
2018-05-03T04:44:33.616Z,86.10
2018-05-03T04:47:08.881Z,87.10
2018-05-03T04:49:45.225Z,87.90
2018-05-03T04:52:20.115Z,88.60
2018-05-03T04:54:56.700Z,88.50
2018-05-03T04:57:32.521Z,88.40
2018-05-03T05:00:08.156Z,87.10
2018-05-03T05:02:44.599Z,87.10
2018-05-03T05:05:19.670Z,87.40
2018-05-03T05:07:56.229Z,88.40
2018-05-03T05:10:32.487Z,87.70
2018-05-03T05:13:08.937Z,86.50
2018-05-03T05:15:45.446Z,86.80
2018-05-03T05:18:22.148Z,84.90
2018-05-03T05:20:58.648Z,83.90
2018-05-03T05:23:35.296Z,82.20
2018-05-03T05:26:10.681Z,83.70
2018-05-03T05:28:46.675Z,82.00
2018-05-03T05:31:22.184Z,80.80
2018-05-03T05:33:57.517Z,82.60
2018-05-03T05:36:32.802Z,81.00
2018-05-03T05:39:08.628Z,79.90
2018-05-03T05:41:43.777Z,80.20
2018-05-03T05:44:19.629Z,82.00
2018-05-03T05:46:56.092Z,83.20
2018-05-03T05:49:33.216Z,80.00
2018-05-03T05:52:10.579Z,80.60
2018-05-03T05:54:48.269Z,79.40
2018-05-03T05:57:24.216Z,80.20
2018-05-03T05:59:59.751Z,82.50
2018-05-03T06:02:37.320Z,81.10
2018-05-03T06:05:13.868Z,84.10
2018-05-03T06:07:50.079Z,84.50
2018-05-03T06:10:26.443Z,85.00
2018-05-03T06:13:02.805Z,81.30
2018-05-03T06:15:41.592Z,82.90
2018-05-03T06:18:17.478Z,82.70
2018-05-03T06:20:53.356Z,83.40
2018-05-03T06:23:30.095Z,83.30
2018-05-03T06:26:05.754Z,83.50
2018-05-03T06:28:42.632Z,83.30
2018-05-03T06:31:20.437Z,83.30
2018-05-03T06:33:55.888Z,81.90
2018-05-03T06:36:31.484Z,79.90
2018-05-03T06:39:07.999Z,80.20
2018-05-03T06:41:43.053Z,80.40
2018-05-03T06:44:18.386Z,80.70
2018-05-03T06:46:55.816Z,82.20
2018-05-03T06:49:31.605Z,81.90
2018-05-03T06:52:06.451Z,81.30
2018-05-03T06:54:41.983Z,81.60
2018-05-03T06:57:19.460Z,80.80
2018-05-03T06:59:56.539Z,79.90
2018-05-03T07:02:33.457Z,80.20
2018-05-03T07:05:09.212Z,80.10
2018-05-03T07:07:45.308Z,80.00
2018-05-03T07:10:20.597Z,79.40
2018-05-03T07:12:56.576Z,79.70
2018-05-03T07:15:33.241Z,79.50
2018-05-03T07:18:08.892Z,79.50
2018-05-03T07:20:44.343Z,79.00
2018-05-03T07:23:21.028Z,77.70
2018-05-03T07:25:56.241Z,77.60
2018-05-03T07:28:33.734Z,79.50
2018-05-03T07:31:09.969Z,78.70
2018-05-03T07:33:45.829Z,80.10
2018-05-03T07:36:22.072Z,78.50
2018-05-03T07:39:00.569Z,78.90
2018-05-03T07:41:36.464Z,78.80
2018-05-03T07:44:12.032Z,77.30
2018-05-03T07:46:48.244Z,77.50
2018-05-03T07:49:23.850Z,78.10
2018-05-03T07:51:59.129Z,78.40
2018-05-03T07:54:34.629Z,77.70
2018-05-03T07:57:11.777Z,77.20
2018-05-03T07:59:47.393Z,78.50
2018-05-03T08:02:23.313Z,78.60
2018-05-03T08:04:59.190Z,77.70
2018-05-03T08:07:35.532Z,77.20
2018-05-03T08:10:10.744Z,77.70
2018-05-03T08:12:48.966Z,77.70
2018-05-03T08:15:24.305Z,74.90
2018-05-03T08:18:00.426Z,76.00
2018-05-03T08:20:36.414Z,75.30
2018-05-03T08:23:11.290Z,76.80
2018-05-03T08:25:46.177Z,75.50
2018-05-03T08:28:25.378Z,75.30
2018-05-03T08:31:01.492Z,75.30
2018-05-03T08:33:36.538Z,74.20
2018-05-03T08:36:12.520Z,73.80
2018-05-03T08:38:49.303Z,72.90
2018-05-03T08:41:25.252Z,71.80
2018-05-03T08:44:02.231Z,72.10
2018-05-03T08:46:38.548Z,71.30
2018-05-03T08:49:15.844Z,71.50
2018-05-03T08:51:51.008Z,70.80
2018-05-03T08:54:27.341Z,69.50
2018-05-03T08:57:03.787Z,71.00
2018-05-03T08:59:40.361Z,70.40
2018-05-03T09:02:16.467Z,70.00
2018-05-03T09:04:52.493Z,69.50
2018-05-03T09:07:29.491Z,67.30
2018-05-03T09:10:05.677Z,65.60
2018-05-03T09:12:42.204Z,63.70
2018-05-03T09:15:18.617Z,62.70
2018-05-03T09:17:55.540Z,60.40
2018-05-03T09:20:31.952Z,60.90
2018-05-03T09:23:07.744Z,61.30
2018-05-03T09:25:44.243Z,59.40
2018-05-03T09:28:20.407Z,58.30
2018-05-03T09:30:56.138Z,59.10
2018-05-03T09:33:32.192Z,61.50
2018-05-03T09:36:08.376Z,60.80
2018-05-03T09:38:44.605Z,62.60
2018-05-03T09:41:20.532Z,60.50
2018-05-03T09:43:57.528Z,63.40
2018-05-03T09:46:34.094Z,63.10
2018-05-03T09:49:10.092Z,62.20
2018-05-03T09:51:45.946Z,64.60
2018-05-03T09:54:21.835Z,65.30
2018-05-03T09:56:58.698Z,65.50
2018-05-03T09:59:35.849Z,67.30
2018-05-03T10:02:12.460Z,65.20
2018-05-03T10:04:48.092Z,65.50
2018-05-03T10:07:23.486Z,65.80
2018-05-03T10:10:00.597Z,66.40
2018-05-03T10:12:36.527Z,68.10
2018-05-03T10:15:13.935Z,68.50
2018-05-03T10:17:49.478Z,68.40
2018-05-03T10:20:24.733Z,66.40
2018-05-03T10:23:00.380Z,66.50
2018-05-03T10:25:36.137Z,66.30
2018-05-03T10:28:11.740Z,66.00
2018-05-03T10:30:47.882Z,66.50
2018-05-03T10:33:23.501Z,67.30
2018-05-03T10:35:58.921Z,68.30
2018-05-03T10:38:35.787Z,66.30
2018-05-03T10:41:12.926Z,66.40
2018-05-03T10:43:48.846Z,65.60
2018-05-03T10:46:25.629Z,66.30
2018-05-03T10:49:00.885Z,67.00
2018-05-03T10:51:37.314Z,68.20
2018-05-03T10:54:14.530Z,66.70
2018-05-03T10:56:50.373Z,67.20
2018-05-03T10:59:27.002Z,67.20
2018-05-03T11:02:03.188Z,67.60
2018-05-03T11:04:39.058Z,67.30
2018-05-03T11:07:15.501Z,66.30
2018-05-03T11:09:52.619Z,66.60
2018-05-03T11:12:29.177Z,66.30
2018-05-03T11:15:05.449Z,65.20
2018-05-03T11:17:42.681Z,65.40
2018-05-03T11:20:20.154Z,62.70
2018-05-03T11:22:57.236Z,61.50
2018-05-03T11:25:34.668Z,61.30
2018-05-03T11:28:10.729Z,62.50
2018-05-03T11:30:54.325Z,61.40
2018-05-03T11:33:39.183Z,58.50
2018-05-03T11:36:21.445Z,58.20
2018-05-03T11:38:59.848Z,59.00
2018-05-03T11:41:35.143Z,57.80
2018-05-03T11:44:12.825Z,57.70
2018-05-03T11:46:53.547Z,57.50
2018-05-03T11:49:32.498Z,56.10
2018-05-03T11:52:13.405Z,54.90
2018-05-03T11:54:55.495Z,55.50
2018-05-03T11:57:33.242Z,53.90
2018-05-03T12:00:09.962Z,54.60
2018-05-03T12:02:52.653Z,55.20
2018-05-03T12:05:30.269Z,51.70
2018-05-03T12:08:06.693Z,52.20
2018-05-03T12:10:44.479Z,52.60
2018-05-03T12:13:21.160Z,50.20
2018-05-03T12:15:57.555Z,49.80
2018-05-03T12:18:33.601Z,50.30
2018-05-03T12:21:08.841Z,48.70
2018-05-03T12:23:45.115Z,49.10
2018-05-03T12:26:20.137Z,50.20
2018-05-03T12:28:56.300Z,51.40
2018-05-03T12:31:32.763Z,47.90
2018-05-03T12:34:08.101Z,45.90
2018-05-03T12:36:44.055Z,46.40
2018-05-03T12:39:20.985Z,45.10
2018-05-03T12:41:56.585Z,47.60
2018-05-03T12:44:33.196Z,45.90
2018-05-03T12:47:10.279Z,46.00
2018-05-03T12:49:46.292Z,46.40
2018-05-03T12:52:21.477Z,45.30
2018-05-03T12:54:57.747Z,48.90
2018-05-03T12:57:34.761Z,46.80
2018-05-03T13:00:11.241Z,46.60
2018-05-03T13:02:48.975Z,48.70
2018-05-03T13:05:26.292Z,48.10
2018-05-03T13:08:06.085Z,47.90
2018-05-03T13:10:47.091Z,47.90
2018-05-03T13:13:21.812Z,49.10
2018-05-03T13:15:58.814Z,48.20
2018-05-03T13:18:38.199Z,47.70
2018-05-03T13:21:14.536Z,50.20
2018-05-03T13:23:52.891Z,48.10
2018-05-03T13:26:28.896Z,46.70
2018-05-03T13:29:05.141Z,48.60
2018-05-03T13:31:43.037Z,48.10
2018-05-03T13:34:26.773Z,47.50
2018-05-03T13:37:03.105Z,50.80
2018-05-03T13:39:39.364Z,47.80
2018-05-03T13:42:15.220Z,50.60
2018-05-03T13:44:51.157Z,49.00
2018-05-03T13:47:28.786Z,49.30
2018-05-03T13:50:05.157Z,51.00
2018-05-03T13:52:41.910Z,50.20
2018-05-03T13:55:21.468Z,50.50
2018-05-03T13:57:58.207Z,50.80
2018-05-03T14:00:35.066Z,51.50
2018-05-03T14:03:11.201Z,49.60
2018-05-03T14:05:48.798Z,52.00
2018-05-03T14:08:24.597Z,51.40
2018-05-03T14:11:00.016Z,51.40
2018-05-03T14:13:35.491Z,50.80
2018-05-03T14:16:12.957Z,51.20
2018-05-03T14:18:48.361Z,51.30
2018-05-03T14:21:23.672Z,50.50
2018-05-03T14:24:00.643Z,50.40
2018-05-03T14:26:38.630Z,52.90
2018-05-03T14:29:17.870Z,51.00
2018-05-03T14:31:57.307Z,49.10
2018-05-03T14:34:34.547Z,50.20
2018-05-03T14:37:13.389Z,50.70
2018-05-03T14:39:49.215Z,50.60
2018-05-03T14:42:25.200Z,51.50
2018-05-03T14:45:01.381Z,49.70
2018-05-03T14:47:37.815Z,49.10
2018-05-03T14:50:15.381Z,49.10
2018-05-03T14:52:50.419Z,49.30
2018-05-03T14:55:25.485Z,50.50
2018-05-03T14:58:03.624Z,49.80
2018-05-03T15:00:39.870Z,49.80
2018-05-03T15:03:16.374Z,50.60
2018-05-03T15:05:54.037Z,52.70
2018-05-03T15:08:30.261Z,51.60
2018-05-03T15:11:05.340Z,54.30
2018-05-03T15:13:41.451Z,53.30
2018-05-03T15:16:17.361Z,52.90
2018-05-03T15:18:53.801Z,53.20
2018-05-03T15:21:29.973Z,54.40
2018-05-03T15:24:06.496Z,54.60
2018-05-03T15:26:42.583Z,54.60
2018-05-03T15:29:17.440Z,57.30
2018-05-03T15:31:54.161Z,53.20
2018-05-03T15:34:30.661Z,55.00
2018-05-03T15:37:07.542Z,56.90
2018-05-03T15:39:43.418Z,54.70
2018-05-03T15:42:19.148Z,54.70
2018-05-03T15:44:54.106Z,55.50
2018-05-03T15:47:32.500Z,55.80
2018-05-03T15:50:07.497Z,54.00
2018-05-03T15:52:42.970Z,56.50
2018-05-03T15:55:19.033Z,55.70
2018-05-03T15:57:54.740Z,54.60
2018-05-03T16:00:30.413Z,57.10
2018-05-03T16:03:05.999Z,55.70
2018-05-03T16:05:42.416Z,52.30
2018-05-03T16:08:18.084Z,54.10
2018-05-03T16:10:53.101Z,53.60
2018-05-03T16:13:28.089Z,53.30
2018-05-03T16:16:02.928Z,54.90
2018-05-03T16:18:39.797Z,53.30
2018-05-03T16:21:16.150Z,53.10
2018-05-03T16:23:51.277Z,51.10
2018-05-03T16:26:27.488Z,51.30
2018-05-03T16:29:04.748Z,51.50
2018-05-03T16:31:40.936Z,52.30
2018-05-03T16:34:16.747Z,51.60
2018-05-03T16:36:51.804Z,52.00
2018-05-03T16:39:28.547Z,52.70
2018-05-03T16:42:03.749Z,51.90
2018-05-03T16:44:39.129Z,52.30
2018-05-03T16:47:14.046Z,53.10
2018-05-03T16:49:49.653Z,53.70
2018-05-03T16:52:26.123Z,53.90
2018-05-03T16:55:03.370Z,53.70
2018-05-03T16:57:39.920Z,53.70
2018-05-03T17:00:15.165Z,54.00
2018-05-03T17:02:51.641Z,55.30
2018-05-03T17:05:27.401Z,56.20
2018-05-03T17:08:02.285Z,56.30
2018-05-03T17:10:39.523Z,57.20
2018-05-03T17:13:15.686Z,57.40
2018-05-03T17:15:52.157Z,57.70
2018-05-03T17:18:28.027Z,57.80
2018-05-03T17:21:04.315Z,58.20
2018-05-03T17:23:40.937Z,59.20
2018-05-03T17:26:17.257Z,59.40
2018-05-03T17:28:53.429Z,61.00
2018-05-03T17:31:31.849Z,60.70
2018-05-03T17:34:07.577Z,62.10
2018-05-03T17:36:42.947Z,61.50
2018-05-03T17:39:21.598Z,61.10
2018-05-03T17:41:58.545Z,62.70
2018-05-03T17:44:35.337Z,61.40
2018-05-03T17:47:10.602Z,61.10
2018-05-03T17:49:45.453Z,61.20
2018-05-03T17:52:21.094Z,61.10
2018-05-03T17:54:58.347Z,61.70
2018-05-03T17:57:33.788Z,62.10
2018-05-03T18:00:10.980Z,62.00
2018-05-03T18:02:46.696Z,62.20
2018-05-03T18:05:23.042Z,62.70
2018-05-03T18:07:59.257Z,63.30
2018-05-03T18:10:35.059Z,62.70
2018-05-03T18:13:10.435Z,63.00
2018-05-03T18:15:46.246Z,63.30
2018-05-03T18:18:23.164Z,63.70
2018-05-03T18:20:59.208Z,63.90
2018-05-03T18:23:35.706Z,64.20
2018-05-03T18:26:12.957Z,64.50
2018-05-03T18:28:49.341Z,64.70
2018-05-03T18:31:25.473Z,64.70
2018-05-03T18:34:00.933Z,65.70
2018-05-03T18:36:37.012Z,65.30
2018-05-03T18:39:14.402Z,65.90
2018-05-03T18:41:49.469Z,67.10
2018-05-03T18:44:26.192Z,65.90
2018-05-03T18:47:01.893Z,66.80
2018-05-03T18:49:37.459Z,66.40
2018-05-03T18:52:13.077Z,65.90
2018-05-03T18:57:33.908Z,67.40
2018-05-03T19:00:09.251Z,67.70
2018-05-03T19:02:44.952Z,67.50
2018-05-03T19:05:21.527Z,69.20
2018-05-03T19:07:59.198Z,68.70
2018-05-03T19:10:36.190Z,69.90
2018-05-03T19:13:11.417Z,70.20
2018-05-03T19:15:48.112Z,70.50
2018-05-03T19:18:24.619Z,68.70
2018-05-03T19:21:00.556Z,70.20
2018-05-03T19:23:36.964Z,71.10
2018-05-03T19:26:13.284Z,71.40
2018-05-03T19:28:49.282Z,70.20
2018-05-03T19:31:24.475Z,69.40
2018-05-03T19:34:00.788Z,70.40
2018-05-03T19:36:38.100Z,71.00
2018-05-03T19:39:13.517Z,69.00
2018-05-03T19:41:50.706Z,68.40
2018-05-03T19:44:29.246Z,68.40
2018-05-03T19:47:03.761Z,69.60
2018-05-03T19:49:38.944Z,70.30
2018-05-03T19:52:14.700Z,69.10
2018-05-03T19:54:51.036Z,66.60
2018-05-03T19:57:27.697Z,64.30
2018-05-03T20:00:04.381Z,60.30
2018-05-03T20:02:39.763Z,60.40
2018-05-03T20:05:14.573Z,60.00
2018-05-03T20:07:50.247Z,59.80
2018-05-03T20:10:29.536Z,59.50
2018-05-03T20:13:05.034Z,58.40
2018-05-03T20:15:42.279Z,58.60
2018-05-03T20:18:24.781Z,57.30
2018-05-03T20:21:00.909Z,57.20
2018-05-03T20:23:36.174Z,56.70
2018-05-03T20:26:12.360Z,57.30
2018-05-03T20:28:50.117Z,55.70
2018-05-03T20:31:24.995Z,55.90
2018-05-03T20:34:04.053Z,56.40
2018-05-03T20:36:39.288Z,56.70
2018-05-03T20:39:15.434Z,56.40
2018-05-03T20:41:51.687Z,56.20
2018-05-03T20:44:27.188Z,56.20
2018-05-03T20:47:02.361Z,57.10
2018-05-03T20:49:38.490Z,56.90
2018-05-03T20:52:14.416Z,57.60
2018-05-03T20:54:51.688Z,57.90
2018-05-03T20:57:26.898Z,58.10
2018-05-03T21:00:02.749Z,58.20
2018-05-03T21:02:38.065Z,58.80
2018-05-03T21:05:15.017Z,58.80
2018-05-03T21:07:50.526Z,59.10
2018-05-03T21:10:26.193Z,59.60
2018-05-03T21:13:01.340Z,59.80
2018-05-03T21:15:36.289Z,59.50
2018-05-03T21:18:11.406Z,59.10
2018-05-03T21:20:46.737Z,57.50
2018-05-03T21:23:23.553Z,55.60
2018-05-03T21:26:00.075Z,54.80
2018-05-03T21:28:36.519Z,54.60
2018-05-03T21:31:12.156Z,54.00
2018-05-03T21:33:47.711Z,53.10
2018-05-03T21:36:24.096Z,52.00
2018-05-03T21:38:58.650Z,52.10
2018-05-03T21:41:33.996Z,52.00
2018-05-03T21:44:10.382Z,52.50
2018-05-03T21:46:45.836Z,52.80
2018-05-03T21:49:20.996Z,51.20
2018-05-03T21:51:56.389Z,50.70
2018-05-03T21:54:32.930Z,51.10
2018-05-03T21:57:09.032Z,51.00
2018-05-03T21:59:44.572Z,50.70
2018-05-03T22:02:20.761Z,50.90
2018-05-03T22:04:57.234Z,50.70
2018-05-03T22:07:33.724Z,50.40
2018-05-03T22:10:09.666Z,50.80
2018-05-03T22:12:45.525Z,50.70
2018-05-03T22:15:21.981Z,50.90
2018-05-03T22:17:58.160Z,50.90
2018-05-03T22:20:33.136Z,51.20
2018-05-03T22:23:08.457Z,51.30
2018-05-03T22:25:45.452Z,51.10
2018-05-03T22:28:20.649Z,51.70
2018-05-03T22:30:56.899Z,52.10
2018-05-03T22:33:33.347Z,52.60
2018-05-03T22:36:09.959Z,52.60
2018-05-03T22:38:45.443Z,53.00
2018-05-03T22:41:20.891Z,52.00
2018-05-03T22:43:56.296Z,51.40
2018-05-03T22:46:31.246Z,50.40
2018-05-03T22:49:06.283Z,51.00
2018-05-03T22:51:42.745Z,50.60
2018-05-03T22:54:18.740Z,49.50
2018-05-03T22:56:55.932Z,49.80
2018-05-03T22:59:31.606Z,50.70
2018-05-03T23:02:06.728Z,51.20
2018-05-03T23:04:43.074Z,49.00
2018-05-03T23:07:19.996Z,49.00
2018-05-03T23:09:56.940Z,48.90
2018-05-03T23:12:33.283Z,48.20
2018-05-03T23:15:08.514Z,47.60
2018-05-03T23:17:43.820Z,47.00
2018-05-03T23:20:19.729Z,46.40
2018-05-03T23:22:57.344Z,46.70
2018-05-03T23:25:32.356Z,46.70
2018-05-03T23:28:07.424Z,47.30
2018-05-03T23:30:44.420Z,46.90
2018-05-03T23:33:20.414Z,46.60
2018-05-03T23:35:57.199Z,47.00
2018-05-03T23:38:32.908Z,46.40
2018-05-03T23:41:11.188Z,46.30
2018-05-03T23:43:47.858Z,46.20
2018-05-03T23:46:25.616Z,46.70
2018-05-03T23:49:02.098Z,46.70
2018-05-03T23:51:37.191Z,46.60
2018-05-03T23:54:13.163Z,46.60
2018-05-03T23:56:49.936Z,46.90
2018-05-03T23:59:25.125Z,47.30
